ěÝzenÝ letovÚho provozu ╚eskÚ republiky
Letiste: LKMT Aktualizace: 01.03.2021 20:12:23  UTC
 SPECI LKMT 01.03. 20:11 ...
SPECI LKMT 012011Z 05005KT 9999 FEW017 00/M01 Q1035 RMK REG QNH 1030=
 TAF LKMT 01.03. 17:00 ...
TAF LKMT 011700Z 0118/0300 01004KT 9999 BKN018      TEMPO 0119/0207 5000 BR BKN009      BECMG 0122/0200 21007KT      BECMG 0207/0209 CAVOK=